sensor_id;sensor_type;location;lat;lon;timestamp;P1;durP1;ratioP1;P2;durP2;ratioP2
84577;SDS011;74803;44.756;19.218;2024-03-17T00:01:52;39.60;;;26.45;;
84577;SDS011;74803;44.756;19.218;2024-03-17T00:04:17;39.20;;;28.27;;
84577;SDS011;74803;44.756;19.218;2024-03-17T00:06:44;41.78;;;28.48;;
84577;SDS011;74803;44.756;19.218;2024-03-17T00:09:10;35.42;;;26.00;;
84577;SDS011;74803;44.756;19.218;2024-03-17T00:11:36;41.90;;;30.45;;
84577;SDS011;74803;44.756;19.218;2024-03-17T00:14:02;51.40;;;30.60;;
84577;SDS011;74803;44.756;19.218;2024-03-17T00:16:28;36.13;;;25.73;;
84577;SDS011;74803;44.756;19.218;2024-03-17T00:18:53;33.27;;;25.13;;
84577;SDS011;74803;44.756;19.218;2024-03-17T00:21:20;45.25;;;30.60;;
84577;SDS011;74803;44.756;19.218;2024-03-17T00:23:49;44.55;;;29.20;;
84577;SDS011;74803;44.756;19.218;2024-03-17T00:26:15;39.28;;;27.65;;
84577;SDS011;74803;44.756;19.218;2024-03-17T00:28:41;39.95;;;29.05;;
84577;SDS011;74803;44.756;19.218;2024-03-17T00:31:07;39.08;;;28.45;;
84577;SDS011;74803;44.756;19.218;2024-03-17T00:33:35;43.65;;;26.90;;
84577;SDS011;74803;44.756;19.218;2024-03-17T00:36:01;36.78;;;27.40;;
84577;SDS011;74803;44.756;19.218;2024-03-17T00:38:26;45.05;;;28.05;;
84577;SDS011;74803;44.756;19.218;2024-03-17T00:40:52;40.95;;;31.42;;
84577;SDS011;74803;44.756;19.218;2024-03-17T00:43:18;47.72;;;31.45;;
84577;SDS011;74803;44.756;19.218;2024-03-17T00:45:44;63.97;;;39.92;;
84577;SDS011;74803;44.756;19.218;2024-03-17T00:48:16;49.38;;;35.10;;
84577;SDS011;74803;44.756;19.218;2024-03-17T00:50:41;45.67;;;29.57;;
84577;SDS011;74803;44.756;19.218;2024-03-17T00:53:07;48.42;;;33.58;;
84577;SDS011;74803;44.756;19.218;2024-03-17T00:55:33;43.47;;;28.30;;
84577;SDS011;74803;44.756;19.218;2024-03-17T00:57:58;39.45;;;30.05;;
84577;SDS011;74803;44.756;19.218;2024-03-17T01:00:24;39.57;;;29.70;;
84577;SDS011;74803;44.756;19.218;2024-03-17T01:02:50;47.58;;;30.30;;
84577;SDS011;74803;44.756;19.218;2024-03-17T01:05:15;41.97;;;32.47;;
84577;SDS011;74803;44.756;19.218;2024-03-17T01:07:41;60.95;;;29.65;;
84577;SDS011;74803;44.756;19.218;2024-03-17T01:10:07;39.78;;;28.67;;
84577;SDS011;74803;44.756;19.218;2024-03-17T01:14:59;41.40;;;30.20;;
84577;SDS011;74803;44.756;19.218;2024-03-17T01:17:25;48.00;;;30.65;;
84577;SDS011;74803;44.756;19.218;2024-03-17T01:19:50;37.80;;;28.03;;
84577;SDS011;74803;44.756;19.218;2024-03-17T01:22:16;39.17;;;31.00;;
84577;SDS011;74803;44.756;19.218;2024-03-17T01:24:42;40.03;;;28.60;;
84577;SDS011;74803;44.756;19.218;2024-03-17T01:27:11;43.85;;;31.83;;
84577;SDS011;74803;44.756;19.218;2024-03-17T01:29:39;43.78;;;31.98;;
84577;SDS011;74803;44.756;19.218;2024-03-17T01:32:05;39.80;;;32.70;;
84577;SDS011;74803;44.756;19.218;2024-03-17T01:34:31;38.08;;;28.92;;
84577;SDS011;74803;44.756;19.218;2024-03-17T01:36:56;37.77;;;28.87;;
84577;SDS011;74803;44.756;19.218;2024-03-17T01:39:22;42.63;;;29.33;;
84577;SDS011;74803;44.756;19.218;2024-03-17T01:41:48;47.03;;;30.80;;
84577;SDS011;74803;44.756;19.218;2024-03-17T01:44:23;40.50;;;29.27;;
84577;SDS011;74803;44.756;19.218;2024-03-17T01:46:51;46.83;;;31.02;;
84577;SDS011;74803;44.756;19.218;2024-03-17T01:49:18;42.13;;;31.60;;
84577;SDS011;74803;44.756;19.218;2024-03-17T01:51:45;46.13;;;32.00;;
84577;SDS011;74803;44.756;19.218;2024-03-17T01:54:12;41.88;;;31.58;;
84577;SDS011;74803;44.756;19.218;2024-03-17T01:56:39;44.95;;;31.63;;
84577;SDS011;74803;44.756;19.218;2024-03-17T01:59:05;45.13;;;32.53;;
84577;SDS011;74803;44.756;19.218;2024-03-17T02:01:31;42.47;;;31.58;;
84577;SDS011;74803;44.756;19.218;2024-03-17T02:03:58;39.75;;;30.75;;
84577;SDS011;74803;44.756;19.218;2024-03-17T02:06:24;39.75;;;30.30;;
84577;SDS011;74803;44.756;19.218;2024-03-17T02:08:50;40.72;;;27.17;;
84577;SDS011;74803;44.756;19.218;2024-03-17T02:11:24;39.28;;;30.10;;
84577;SDS011;74803;44.756;19.218;2024-03-17T02:13:54;40.03;;;30.48;;
84577;SDS011;74803;44.756;19.218;2024-03-17T02:16:21;44.45;;;29.50;;
84577;SDS011;74803;44.756;19.218;2024-03-17T02:21:13;50.35;;;31.05;;
84577;SDS011;74803;44.756;19.218;2024-03-17T02:23:40;40.50;;;29.02;;
84577;SDS011;74803;44.756;19.218;2024-03-17T02:26:08;45.30;;;34.20;;
84577;SDS011;74803;44.756;19.218;2024-03-17T02:28:41;44.45;;;32.17;;
84577;SDS011;74803;44.756;19.218;2024-03-17T02:31:08;41.35;;;31.10;;
84577;SDS011;74803;44.756;19.218;2024-03-17T02:33:35;41.00;;;31.60;;
84577;SDS011;74803;44.756;19.218;2024-03-17T02:36:02;46.95;;;34.47;;
84577;SDS011;74803;44.756;19.218;2024-03-17T02:38:34;38.50;;;29.65;;
84577;SDS011;74803;44.756;19.218;2024-03-17T02:41:18;42.03;;;29.45;;
84577;SDS011;74803;44.756;19.218;2024-03-17T02:43:45;53.28;;;33.35;;
84577;SDS011;74803;44.756;19.218;2024-03-17T02:46:11;62.08;;;39.60;;
84577;SDS011;74803;44.756;19.218;2024-03-17T02:48:41;48.30;;;32.22;;
84577;SDS011;74803;44.756;19.218;2024-03-17T02:51:16;39.75;;;29.80;;
84577;SDS011;74803;44.756;19.218;2024-03-17T02:53:43;37.35;;;30.23;;
84577;SDS011;74803;44.756;19.218;2024-03-17T02:56:13;39.92;;;28.98;;
84577;SDS011;74803;44.756;19.218;2024-03-17T02:58:43;41.47;;;31.35;;
84577;SDS011;74803;44.756;19.218;2024-03-17T03:01:11;39.70;;;28.60;;
84577;SDS011;74803;44.756;19.218;2024-03-17T03:03:38;38.25;;;29.33;;
84577;SDS011;74803;44.756;19.218;2024-03-17T03:06:03;36.97;;;29.05;;
84577;SDS011;74803;44.756;19.218;2024-03-17T03:08:34;36.15;;;27.70;;
84577;SDS011;74803;44.756;19.218;2024-03-17T03:11:05;52.40;;;35.83;;
84577;SDS011;74803;44.756;19.218;2024-03-17T03:13:36;45.03;;;33.70;;
84577;SDS011;74803;44.756;19.218;2024-03-17T03:16:06;36.97;;;30.25;;
84577;SDS011;74803;44.756;19.218;2024-03-17T03:18:33;46.15;;;32.60;;
84577;SDS011;74803;44.756;19.218;2024-03-17T03:20:59;40.33;;;31.67;;
84577;SDS011;74803;44.756;19.218;2024-03-17T03:23:25;35.50;;;30.80;;
84577;SDS011;74803;44.756;19.218;2024-03-17T03:25:58;45.15;;;31.75;;
84577;SDS011;74803;44.756;19.218;2024-03-17T03:28:26;48.83;;;31.90;;
84577;SDS011;74803;44.756;19.218;2024-03-17T03:30:52;44.20;;;30.08;;
84577;SDS011;74803;44.756;19.218;2024-03-17T03:33:18;42.53;;;30.02;;
84577;SDS011;74803;44.756;19.218;2024-03-17T03:35:44;38.08;;;28.58;;
84577;SDS011;74803;44.756;19.218;2024-03-17T03:38:11;36.83;;;29.15;;
84577;SDS011;74803;44.756;19.218;2024-03-17T03:40:38;39.25;;;31.30;;
84577;SDS011;74803;44.756;19.218;2024-03-17T03:43:05;38.67;;;32.50;;
84577;SDS011;74803;44.756;19.218;2024-03-17T03:45:30;47.83;;;40.67;;
84577;SDS011;74803;44.756;19.218;2024-03-17T03:47:56;56.63;;;45.33;;
84577;SDS011;74803;44.756;19.218;2024-03-17T03:50:22;66.95;;;58.95;;
84577;SDS011;74803;44.756;19.218;2024-03-17T03:52:48;52.15;;;46.03;;
84577;SDS011;74803;44.756;19.218;2024-03-17T03:55:15;51.60;;;44.72;;
84577;SDS011;74803;44.756;19.218;2024-03-17T03:57:42;53.95;;;42.63;;
84577;SDS011;74803;44.756;19.218;2024-03-17T04:00:11;43.60;;;36.65;;
84577;SDS011;74803;44.756;19.218;2024-03-17T04:02:39;40.60;;;35.35;;
84577;SDS011;74803;44.756;19.218;2024-03-17T04:07:31;40.50;;;32.08;;
84577;SDS011;74803;44.756;19.218;2024-03-17T04:09:56;42.35;;;32.53;;
84577;SDS011;74803;44.756;19.218;2024-03-17T04:12:23;39.13;;;31.92;;
84577;SDS011;74803;44.756;19.218;2024-03-17T04:14:50;42.55;;;32.92;;
84577;SDS011;74803;44.756;19.218;2024-03-17T04:17:21;37.55;;;31.15;;
84577;SDS011;74803;44.756;19.218;2024-03-17T04:19:48;46.97;;;35.10;;
84577;SDS011;74803;44.756;19.218;2024-03-17T04:24:40;46.03;;;38.80;;
84577;SDS011;74803;44.756;19.218;2024-03-17T04:27:06;51.55;;;36.85;;
84577;SDS011;74803;44.756;19.218;2024-03-17T04:29:31;63.37;;;44.97;;
84577;SDS011;74803;44.756;19.218;2024-03-17T04:31:57;66.65;;;47.47;;
84577;SDS011;74803;44.756;19.218;2024-03-17T04:34:22;110.73;;;63.33;;
84577;SDS011;74803;44.756;19.218;2024-03-17T04:36:48;76.47;;;46.10;;
84577;SDS011;74803;44.756;19.218;2024-03-17T04:39:14;64.55;;;43.17;;
84577;SDS011;74803;44.756;19.218;2024-03-17T04:41:40;49.40;;;34.73;;
84577;SDS011;74803;44.756;19.218;2024-03-17T04:44:06;47.67;;;33.15;;
84577;SDS011;74803;44.756;19.218;2024-03-17T04:46:32;38.30;;;30.00;;
84577;SDS011;74803;44.756;19.218;2024-03-17T04:48:58;37.75;;;29.13;;
84577;SDS011;74803;44.756;19.218;2024-03-17T04:51:23;43.42;;;30.95;;
84577;SDS011;74803;44.756;19.218;2024-03-17T04:53:49;44.03;;;31.40;;
84577;SDS011;74803;44.756;19.218;2024-03-17T04:56:14;92.33;;;58.30;;
84577;SDS011;74803;44.756;19.218;2024-03-17T04:58:40;80.43;;;53.40;;
84577;SDS011;74803;44.756;19.218;2024-03-17T05:01:09;55.33;;;39.38;;
84577;SDS011;74803;44.756;19.218;2024-03-17T05:03:35;43.28;;;30.75;;
84577;SDS011;74803;44.756;19.218;2024-03-17T05:06:02;43.25;;;31.83;;
84577;SDS011;74803;44.756;19.218;2024-03-17T05:08:29;45.05;;;33.28;;
84577;SDS011;74803;44.756;19.218;2024-03-17T05:13:21;44.45;;;32.30;;
84577;SDS011;74803;44.756;19.218;2024-03-17T05:15:47;50.40;;;40.90;;
84577;SDS011;74803;44.756;19.218;2024-03-17T05:18:12;48.93;;;36.33;;
84577;SDS011;74803;44.756;19.218;2024-03-17T05:20:38;45.67;;;31.95;;
84577;SDS011;74803;44.756;19.218;2024-03-17T05:23:03;45.90;;;38.03;;
84577;SDS011;74803;44.756;19.218;2024-03-17T05:25:29;64.65;;;55.17;;
84577;SDS011;74803;44.756;19.218;2024-03-17T05:27:55;60.37;;;53.87;;
84577;SDS011;74803;44.756;19.218;2024-03-17T05:30:20;62.10;;;50.78;;
84577;SDS011;74803;44.756;19.218;2024-03-17T05:32:46;44.40;;;38.13;;
84577;SDS011;74803;44.756;19.218;2024-03-17T05:35:11;37.20;;;29.23;;
84577;SDS011;74803;44.756;19.218;2024-03-17T05:37:37;34.33;;;26.40;;
84577;SDS011;74803;44.756;19.218;2024-03-17T05:40:03;43.23;;;30.57;;
84577;SDS011;74803;44.756;19.218;2024-03-17T05:42:29;32.40;;;25.30;;
84577;SDS011;74803;44.756;19.218;2024-03-17T05:44:55;30.42;;;22.85;;
84577;SDS011;74803;44.756;19.218;2024-03-17T05:47:21;29.90;;;21.53;;
84577;SDS011;74803;44.756;19.218;2024-03-17T05:49:47;30.15;;;22.83;;
84577;SDS011;74803;44.756;19.218;2024-03-17T05:52:13;30.50;;;24.50;;
84577;SDS011;74803;44.756;19.218;2024-03-17T05:54:39;30.90;;;23.23;;
84577;SDS011;74803;44.756;19.218;2024-03-17T05:59:32;28.87;;;21.93;;
84577;SDS011;74803;44.756;19.218;2024-03-17T06:01:59;35.63;;;26.55;;
84577;SDS011;74803;44.756;19.218;2024-03-17T06:04:25;35.10;;;26.52;;
84577;SDS011;74803;44.756;19.218;2024-03-17T06:06:50;43.17;;;26.13;;
84577;SDS011;74803;44.756;19.218;2024-03-17T06:09:16;30.93;;;26.27;;
84577;SDS011;74803;44.756;19.218;2024-03-17T06:11:45;38.95;;;29.75;;
84577;SDS011;74803;44.756;19.218;2024-03-17T06:14:11;37.00;;;30.05;;
84577;SDS011;74803;44.756;19.218;2024-03-17T06:16:38;39.15;;;32.05;;
84577;SDS011;74803;44.756;19.218;2024-03-17T06:19:04;28.50;;;22.77;;
84577;SDS011;74803;44.756;19.218;2024-03-17T06:21:30;24.48;;;21.15;;
84577;SDS011;74803;44.756;19.218;2024-03-17T06:23:56;33.80;;;23.07;;
84577;SDS011;74803;44.756;19.218;2024-03-17T06:26:22;34.80;;;26.90;;
84577;SDS011;74803;44.756;19.218;2024-03-17T06:28:48;34.30;;;24.48;;
84577;SDS011;74803;44.756;19.218;2024-03-17T06:31:14;34.38;;;25.02;;
84577;SDS011;74803;44.756;19.218;2024-03-17T06:36:06;29.63;;;20.30;;
84577;SDS011;74803;44.756;19.218;2024-03-17T06:38:32;27.95;;;20.10;;
84577;SDS011;74803;44.756;19.218;2024-03-17T06:43:24;26.77;;;18.83;;
84577;SDS011;74803;44.756;19.218;2024-03-17T06:45:53;27.60;;;18.77;;
84577;SDS011;74803;44.756;19.218;2024-03-17T06:48:20;27.85;;;18.48;;
84577;SDS011;74803;44.756;19.218;2024-03-17T06:50:46;25.00;;;19.42;;
84577;SDS011;74803;44.756;19.218;2024-03-17T06:53:11;23.03;;;18.07;;
84577;SDS011;74803;44.756;19.218;2024-03-17T06:55:38;25.00;;;16.73;;
84577;SDS011;74803;44.756;19.218;2024-03-17T06:58:03;21.10;;;14.50;;
84577;SDS011;74803;44.756;19.218;2024-03-17T07:00:29;20.90;;;15.82;;
84577;SDS011;74803;44.756;19.218;2024-03-17T07:02:55;20.95;;;13.85;;
84577;SDS011;74803;44.756;19.218;2024-03-17T07:05:20;13.67;;;11.33;;
84577;SDS011;74803;44.756;19.218;2024-03-17T07:07:46;17.45;;;14.65;;
84577;SDS011;74803;44.756;19.218;2024-03-17T07:10:12;15.23;;;11.90;;
84577;SDS011;74803;44.756;19.218;2024-03-17T07:12:38;16.17;;;12.27;;
84577;SDS011;74803;44.756;19.218;2024-03-17T07:15:05;13.50;;;10.52;;
84577;SDS011;74803;44.756;19.218;2024-03-17T07:17:31;13.60;;;11.13;;
84577;SDS011;74803;44.756;19.218;2024-03-17T07:19:56;15.70;;;11.57;;
84577;SDS011;74803;44.756;19.218;2024-03-17T07:22:22;14.30;;;10.53;;
84577;SDS011;74803;44.756;19.218;2024-03-17T07:24:48;20.38;;;18.33;;
84577;SDS011;74803;44.756;19.218;2024-03-17T07:27:17;24.95;;;18.27;;
84577;SDS011;74803;44.756;19.218;2024-03-17T07:29:42;20.03;;;17.93;;
84577;SDS011;74803;44.756;19.218;2024-03-17T07:32:08;21.25;;;15.20;;
84577;SDS011;74803;44.756;19.218;2024-03-17T07:34:34;16.77;;;15.00;;
84577;SDS011;74803;44.756;19.218;2024-03-17T07:37:00;12.05;;;8.77;;
84577;SDS011;74803;44.756;19.218;2024-03-17T07:39:30;14.23;;;11.13;;
84577;SDS011;74803;44.756;19.218;2024-03-17T07:41:59;16.63;;;10.13;;
84577;SDS011;74803;44.756;19.218;2024-03-17T07:44:27;15.30;;;12.57;;
84577;SDS011;74803;44.756;19.218;2024-03-17T07:47:02;16.08;;;13.32;;
84577;SDS011;74803;44.756;19.218;2024-03-17T07:49:32;18.48;;;14.88;;
84577;SDS011;74803;44.756;19.218;2024-03-17T07:51:58;13.23;;;10.60;;
84577;SDS011;74803;44.756;19.218;2024-03-17T07:54:27;12.82;;;9.88;;
84577;SDS011;74803;44.756;19.218;2024-03-17T07:56:53;17.48;;;9.45;;
84577;SDS011;74803;44.756;19.218;2024-03-17T07:59:19;12.32;;;8.80;;
84577;SDS011;74803;44.756;19.218;2024-03-17T08:01:44;11.38;;;7.53;;
84577;SDS011;74803;44.756;19.218;2024-03-17T08:04:11;10.20;;;9.18;;
84577;SDS011;74803;44.756;19.218;2024-03-17T08:06:38;11.10;;;8.45;;
84577;SDS011;74803;44.756;19.218;2024-03-17T08:09:07;11.43;;;9.32;;
84577;SDS011;74803;44.756;19.218;2024-03-17T08:11:37;12.13;;;8.10;;
84577;SDS011;74803;44.756;19.218;2024-03-17T08:14:03;10.13;;;8.60;;
84577;SDS011;74803;44.756;19.218;2024-03-17T08:16:30;10.48;;;8.90;;
84577;SDS011;74803;44.756;19.218;2024-03-17T08:18:56;14.63;;;11.73;;
84577;SDS011;74803;44.756;19.218;2024-03-17T08:21:22;11.70;;;7.65;;
84577;SDS011;74803;44.756;19.218;2024-03-17T08:23:48;8.63;;;5.82;;
84577;SDS011;74803;44.756;19.218;2024-03-17T08:26:14;12.10;;;9.05;;
84577;SDS011;74803;44.756;19.218;2024-03-17T08:31:05;13.77;;;9.77;;
84577;SDS011;74803;44.756;19.218;2024-03-17T08:33:31;10.85;;;8.93;;
84577;SDS011;74803;44.756;19.218;2024-03-17T08:38:29;13.23;;;7.93;;
84577;SDS011;74803;44.756;19.218;2024-03-17T08:40:56;10.27;;;8.02;;
84577;SDS011;74803;44.756;19.218;2024-03-17T08:43:23;10.30;;;6.35;;
84577;SDS011;74803;44.756;19.218;2024-03-17T08:45:56;11.05;;;8.18;;
84577;SDS011;74803;44.756;19.218;2024-03-17T08:48:27;9.65;;;5.65;;
84577;SDS011;74803;44.756;19.218;2024-03-17T08:50:54;11.55;;;6.60;;
84577;SDS011;74803;44.756;19.218;2024-03-17T08:53:20;11.48;;;7.28;;
84577;SDS011;74803;44.756;19.218;2024-03-17T08:55:46;7.95;;;5.15;;
84577;SDS011;74803;44.756;19.218;2024-03-17T09:00:38;14.88;;;6.72;;
84577;SDS011;74803;44.756;19.218;2024-03-17T09:03:06;8.32;;;6.32;;
84577;SDS011;74803;44.756;19.218;2024-03-17T09:05:36;7.28;;;4.80;;
84577;SDS011;74803;44.756;19.218;2024-03-17T09:10:28;6.88;;;5.20;;
84577;SDS011;74803;44.756;19.218;2024-03-17T09:12:54;6.78;;;5.40;;
84577;SDS011;74803;44.756;19.218;2024-03-17T09:15:19;7.63;;;4.65;;
84577;SDS011;74803;44.756;19.218;2024-03-17T09:17:46;11.25;;;6.55;;
84577;SDS011;74803;44.756;19.218;2024-03-17T09:20:13;10.43;;;5.40;;
84577;SDS011;74803;44.756;19.218;2024-03-17T09:22:43;8.65;;;5.55;;
84577;SDS011;74803;44.756;19.218;2024-03-17T09:25:08;28.05;;;13.50;;
84577;SDS011;74803;44.756;19.218;2024-03-17T09:27:35;11.25;;;5.45;;
84577;SDS011;74803;44.756;19.218;2024-03-17T09:30:04;6.32;;;4.32;;
84577;SDS011;74803;44.756;19.218;2024-03-17T09:32:36;16.50;;;7.72;;
84577;SDS011;74803;44.756;19.218;2024-03-17T09:35:02;24.50;;;10.18;;
84577;SDS011;74803;44.756;19.218;2024-03-17T09:37:28;9.18;;;6.60;;
84577;SDS011;74803;44.756;19.218;2024-03-17T09:39:56;7.93;;;4.85;;
84577;SDS011;74803;44.756;19.218;2024-03-17T09:42:23;6.63;;;4.68;;
84577;SDS011;74803;44.756;19.218;2024-03-17T09:44:49;9.50;;;5.97;;
84577;SDS011;74803;44.756;19.218;2024-03-17T09:47:19;13.30;;;7.07;;
84577;SDS011;74803;44.756;19.218;2024-03-17T09:49:48;13.45;;;8.07;;
84577;SDS011;74803;44.756;19.218;2024-03-17T09:52:21;6.18;;;4.47;;
84577;SDS011;74803;44.756;19.218;2024-03-17T09:54:50;10.10;;;6.50;;
84577;SDS011;74803;44.756;19.218;2024-03-17T09:57:22;8.00;;;4.78;;
84577;SDS011;74803;44.756;19.218;2024-03-17T09:59:52;5.65;;;4.45;;
84577;SDS011;74803;44.756;19.218;2024-03-17T10:02:21;6.70;;;4.72;;
84577;SDS011;74803;44.756;19.218;2024-03-17T10:04:48;4.93;;;3.80;;
84577;SDS011;74803;44.756;19.218;2024-03-17T10:07:14;8.55;;;5.18;;
84577;SDS011;74803;44.756;19.218;2024-03-17T10:09:41;5.70;;;4.15;;
84577;SDS011;74803;44.756;19.218;2024-03-17T10:12:24;9.98;;;5.88;;
84577;SDS011;74803;44.756;19.218;2024-03-17T10:14:59;7.00;;;4.05;;
84577;SDS011;74803;44.756;19.218;2024-03-17T10:17:29;5.50;;;3.90;;
84577;SDS011;74803;44.756;19.218;2024-03-17T10:22:59;5.70;;;4.35;;
84577;SDS011;74803;44.756;19.218;2024-03-17T10:25:30;16.05;;;4.65;;
84577;SDS011;74803;44.756;19.218;2024-03-17T10:28:14;4.75;;;4.03;;
84577;SDS011;74803;44.756;19.218;2024-03-17T10:30:42;11.95;;;4.60;;
84577;SDS011;74803;44.756;19.218;2024-03-17T10:33:23;5.65;;;3.92;;
84577;SDS011;74803;44.756;19.218;2024-03-17T10:35:59;4.95;;;3.20;;
84577;SDS011;74803;44.756;19.218;2024-03-17T10:38:26;4.85;;;3.40;;
84577;SDS011;74803;44.756;19.218;2024-03-17T10:41:08;7.03;;;4.57;;
84577;SDS011;74803;44.756;19.218;2024-03-17T10:43:36;4.78;;;3.78;;
84577;SDS011;74803;44.756;19.218;2024-03-17T10:46:05;7.35;;;4.80;;
84577;SDS011;74803;44.756;19.218;2024-03-17T10:48:33;13.23;;;6.82;;
84577;SDS011;74803;44.756;19.218;2024-03-17T10:51:01;8.77;;;3.97;;
84577;SDS011;74803;44.756;19.218;2024-03-17T10:53:28;5.97;;;4.28;;
84577;SDS011;74803;44.756;19.218;2024-03-17T10:56:05;6.10;;;3.75;;
84577;SDS011;74803;44.756;19.218;2024-03-17T10:58:38;6.05;;;4.13;;
84577;SDS011;74803;44.756;19.218;2024-03-17T11:01:06;3.90;;;2.78;;
84577;SDS011;74803;44.756;19.218;2024-03-17T11:03:33;6.70;;;3.47;;
84577;SDS011;74803;44.756;19.218;2024-03-17T11:06:00;3.80;;;2.53;;
84577;SDS011;74803;44.756;19.218;2024-03-17T11:08:29;3.72;;;2.78;;
84577;SDS011;74803;44.756;19.218;2024-03-17T11:10:57;3.30;;;2.35;;
84577;SDS011;74803;44.756;19.218;2024-03-17T11:15:49;9.50;;;5.88;;
84577;SDS011;74803;44.756;19.218;2024-03-17T11:23:36;6.22;;;3.30;;
84577;SDS011;74803;44.756;19.218;2024-03-17T11:26:05;4.85;;;3.35;;
84577;SDS011;74803;44.756;19.218;2024-03-17T11:28:50;5.20;;;3.47;;
84577;SDS011;74803;44.756;19.218;2024-03-17T11:37:01;11.75;;;5.90;;
84577;SDS011;74803;44.756;19.218;2024-03-17T11:39:48;4.07;;;2.53;;
84577;SDS011;74803;44.756;19.218;2024-03-17T11:42:28;8.07;;;3.38;;
84577;SDS011;74803;44.756;19.218;2024-03-17T11:45:02;3.47;;;1.67;;
84577;SDS011;74803;44.756;19.218;2024-03-17T11:47:35;4.78;;;2.67;;
84577;SDS011;74803;44.756;19.218;2024-03-17T11:50:06;4.32;;;2.17;;
84577;SDS011;74803;44.756;19.218;2024-03-17T11:52:35;5.85;;;3.05;;
84577;SDS011;74803;44.756;19.218;2024-03-17T11:55:01;5.63;;;2.55;;
84577;SDS011;74803;44.756;19.218;2024-03-17T11:57:27;2.75;;;2.00;;
84577;SDS011;74803;44.756;19.218;2024-03-17T12:02:20;3.27;;;2.30;;
84577;SDS011;74803;44.756;19.218;2024-03-17T12:04:48;4.30;;;2.60;;
84577;SDS011;74803;44.756;19.218;2024-03-17T12:07:18;4.03;;;2.65;;
84577;SDS011;74803;44.756;19.218;2024-03-17T12:09:49;4.60;;;2.42;;
84577;SDS011;74803;44.756;19.218;2024-03-17T12:12:16;12.48;;;2.65;;
84577;SDS011;74803;44.756;19.218;2024-03-17T12:14:48;4.63;;;2.60;;
84577;SDS011;74803;44.756;19.218;2024-03-17T12:17:19;4.15;;;2.40;;
84577;SDS011;74803;44.756;19.218;2024-03-17T12:19:46;3.60;;;2.70;;
84577;SDS011;74803;44.756;19.218;2024-03-17T12:22:17;3.50;;;2.58;;
84577;SDS011;74803;44.756;19.218;2024-03-17T12:24:53;3.08;;;2.20;;
84577;SDS011;74803;44.756;19.218;2024-03-17T12:27:21;8.80;;;4.20;;
84577;SDS011;74803;44.756;19.218;2024-03-17T12:29:51;6.55;;;3.70;;
84577;SDS011;74803;44.756;19.218;2024-03-17T12:32:24;5.55;;;4.07;;
84577;SDS011;74803;44.756;19.218;2024-03-17T12:34:54;3.33;;;2.53;;
84577;SDS011;74803;44.756;19.218;2024-03-17T12:37:24;6.90;;;3.25;;
84577;SDS011;74803;44.756;19.218;2024-03-17T12:39:59;3.90;;;2.47;;
84577;SDS011;74803;44.756;19.218;2024-03-17T12:42:27;4.57;;;2.83;;
84577;SDS011;74803;44.756;19.218;2024-03-17T12:44:54;4.60;;;2.55;;
84577;SDS011;74803;44.756;19.218;2024-03-17T12:47:25;3.67;;;2.30;;
84577;SDS011;74803;44.756;19.218;2024-03-17T12:49:53;2.80;;;2.08;;
84577;SDS011;74803;44.756;19.218;2024-03-17T12:57:49;4.80;;;2.13;;
84577;SDS011;74803;44.756;19.218;2024-03-17T13:00:34;3.63;;;2.40;;
84577;SDS011;74803;44.756;19.218;2024-03-17T13:03:00;3.45;;;2.13;;
84577;SDS011;74803;44.756;19.218;2024-03-17T13:05:26;5.05;;;2.05;;
84577;SDS011;74803;44.756;19.218;2024-03-17T13:07:52;4.43;;;2.15;;
84577;SDS011;74803;44.756;19.218;2024-03-17T13:10:20;4.13;;;3.13;;
84577;SDS011;74803;44.756;19.218;2024-03-17T13:12:46;4.28;;;2.53;;
84577;SDS011;74803;44.756;19.218;2024-03-17T13:15:14;4.45;;;3.10;;
84577;SDS011;74803;44.756;19.218;2024-03-17T13:17:43;6.07;;;3.80;;
84577;SDS011;74803;44.756;19.218;2024-03-17T13:20:12;4.63;;;3.17;;
84577;SDS011;74803;44.756;19.218;2024-03-17T13:22:41;7.88;;;4.45;;
84577;SDS011;74803;44.756;19.218;2024-03-17T13:25:12;3.38;;;2.15;;
84577;SDS011;74803;44.756;19.218;2024-03-17T13:27:40;4.05;;;2.53;;
84577;SDS011;74803;44.756;19.218;2024-03-17T13:30:07;2.58;;;2.13;;
84577;SDS011;74803;44.756;19.218;2024-03-17T13:32:35;4.85;;;2.25;;
84577;SDS011;74803;44.756;19.218;2024-03-17T13:35:01;4.18;;;2.28;;
84577;SDS011;74803;44.756;19.218;2024-03-17T13:37:28;3.55;;;2.38;;
84577;SDS011;74803;44.756;19.218;2024-03-17T13:39:53;1.67;;;1.48;;
84577;SDS011;74803;44.756;19.218;2024-03-17T13:42:19;4.15;;;2.30;;
84577;SDS011;74803;44.756;19.218;2024-03-17T13:44:46;2.97;;;2.10;;
84577;SDS011;74803;44.756;19.218;2024-03-17T13:47:12;2.90;;;1.80;;
84577;SDS011;74803;44.756;19.218;2024-03-17T13:49:40;2.22;;;1.60;;
84577;SDS011;74803;44.756;19.218;2024-03-17T13:52:05;2.88;;;1.80;;
84577;SDS011;74803;44.756;19.218;2024-03-17T13:54:31;2.53;;;1.95;;
84577;SDS011;74803;44.756;19.218;2024-03-17T13:56:57;3.05;;;2.10;;
84577;SDS011;74803;44.756;19.218;2024-03-17T13:59:23;2.53;;;1.80;;
84577;SDS011;74803;44.756;19.218;2024-03-17T14:01:52;3.15;;;1.60;;
84577;SDS011;74803;44.756;19.218;2024-03-17T14:04:17;3.55;;;2.40;;
84577;SDS011;74803;44.756;19.218;2024-03-17T14:06:44;2.10;;;1.50;;
84577;SDS011;74803;44.756;19.218;2024-03-17T14:09:11;2.90;;;1.98;;
84577;SDS011;74803;44.756;19.218;2024-03-17T14:11:37;4.00;;;2.50;;
84577;SDS011;74803;44.756;19.218;2024-03-17T14:14:04;4.78;;;2.75;;
84577;SDS011;74803;44.756;19.218;2024-03-17T14:16:31;3.25;;;2.30;;
84577;SDS011;74803;44.756;19.218;2024-03-17T14:18:58;4.07;;;2.17;;
84577;SDS011;74803;44.756;19.218;2024-03-17T14:21:24;2.90;;;2.08;;
84577;SDS011;74803;44.756;19.218;2024-03-17T14:23:50;4.78;;;2.42;;
84577;SDS011;74803;44.756;19.218;2024-03-17T14:26:17;2.90;;;2.13;;
84577;SDS011;74803;44.756;19.218;2024-03-17T14:28:44;4.05;;;2.38;;
84577;SDS011;74803;44.756;19.218;2024-03-17T14:31:11;4.97;;;2.97;;
84577;SDS011;74803;44.756;19.218;2024-03-17T14:33:37;3.20;;;2.25;;
84577;SDS011;74803;44.756;19.218;2024-03-17T14:36:02;4.15;;;2.70;;
84577;SDS011;74803;44.756;19.218;2024-03-17T14:38:28;6.13;;;3.80;;
84577;SDS011;74803;44.756;19.218;2024-03-17T14:40:55;2.78;;;2.17;;
84577;SDS011;74803;44.756;19.218;2024-03-17T14:43:21;2.67;;;2.05;;
84577;SDS011;74803;44.756;19.218;2024-03-17T14:45:46;4.07;;;2.33;;
84577;SDS011;74803;44.756;19.218;2024-03-17T14:48:24;4.25;;;2.08;;
84577;SDS011;74803;44.756;19.218;2024-03-17T14:51:13;3.13;;;2.08;;
84577;SDS011;74803;44.756;19.218;2024-03-17T14:53:40;6.50;;;4.55;;
84577;SDS011;74803;44.756;19.218;2024-03-17T14:56:27;6.72;;;5.22;;
84577;SDS011;74803;44.756;19.218;2024-03-17T14:58:53;4.65;;;2.60;;
84577;SDS011;74803;44.756;19.218;2024-03-17T15:01:18;3.20;;;2.55;;
84577;SDS011;74803;44.756;19.218;2024-03-17T15:03:44;2.53;;;1.92;;
84577;SDS011;74803;44.756;19.218;2024-03-17T15:06:11;3.75;;;2.30;;
84577;SDS011;74803;44.756;19.218;2024-03-17T15:08:38;3.17;;;2.08;;
84577;SDS011;74803;44.756;19.218;2024-03-17T15:11:04;5.32;;;2.90;;
84577;SDS011;74803;44.756;19.218;2024-03-17T15:13:32;3.17;;;2.17;;
84577;SDS011;74803;44.756;19.218;2024-03-17T15:15:59;5.60;;;2.92;;